createdAt,value
2022-12-13T00:01:51.862Z,-4.70
2022-12-13T00:04:22.202Z,-4.72
2022-12-13T00:06:49.976Z,-4.67
2022-12-13T00:09:18.917Z,-4.71
2022-12-13T00:11:46.076Z,-4.68
2022-12-13T00:14:16.678Z,-4.70
2022-12-13T00:16:50.707Z,-4.74
2022-12-13T00:19:18.553Z,-4.75
2022-12-13T00:21:45.741Z,-4.76
2022-12-13T00:24:13.114Z,-4.73
2022-12-13T00:26:40.331Z,-4.79
2022-12-13T00:29:08.734Z,-4.85
2022-12-13T00:31:58.680Z,-4.94
2022-12-13T00:34:23.702Z,-4.96
2022-12-13T00:36:50.797Z,-4.91
2022-12-13T00:39:19.038Z,-4.97
2022-12-13T00:41:46.021Z,-4.94
2022-12-13T00:44:14.448Z,-4.93
2022-12-13T00:46:42.246Z,-5.00
2022-12-13T00:49:11.933Z,-5.04
2022-12-13T00:51:39.537Z,-5.09
2022-12-13T00:54:07.075Z,-5.10
2022-12-13T00:56:34.939Z,-5.02
2022-12-13T00:59:01.949Z,-5.10
2022-12-13T01:01:34.171Z,-5.03
2022-12-13T01:04:05.552Z,-5.08
2022-12-13T01:06:45.881Z,-5.09
2022-12-13T01:09:21.539Z,-5.09
2022-12-13T01:11:49.778Z,-5.09
2022-12-13T01:14:18.161Z,-5.12
2022-12-13T01:16:45.212Z,-5.12
2022-12-13T01:19:12.172Z,-5.18
2022-12-13T01:21:39.280Z,-5.14
2022-12-13T01:24:07.317Z,-5.15
2022-12-13T01:26:35.040Z,-5.17
2022-12-13T01:29:02.257Z,-5.19
2022-12-13T01:31:29.528Z,-5.20
2022-12-13T01:33:57.832Z,-5.22
2022-12-13T01:36:27.781Z,-5.28
2022-12-13T01:38:58.495Z,-5.23
2022-12-13T01:41:28.343Z,-5.24
2022-12-13T01:44:03.334Z,-5.28
2022-12-13T01:46:35.968Z,-5.34
2022-12-13T01:49:20.211Z,-5.34
2022-12-13T01:52:00.039Z,-5.39
2022-12-13T01:54:36.298Z,-5.43
2022-12-13T01:57:07.865Z,-5.50
2022-12-13T01:59:40.235Z,-5.46
2022-12-13T02:02:07.924Z,-5.51
2022-12-13T02:04:56.605Z,-5.49
2022-12-13T02:07:33.775Z,-5.53
2022-12-13T02:10:03.978Z,-5.55
2022-12-13T02:12:34.515Z,-5.53
2022-12-13T02:15:08.217Z,-5.53
2022-12-13T02:18:01.782Z,-5.55
2022-12-13T02:20:57.895Z,-5.51
2022-12-13T02:24:16.263Z,-5.51
2022-12-13T02:26:53.975Z,-5.52
2022-12-13T02:29:49.094Z,-5.56
2022-12-13T02:32:30.521Z,-5.50
2022-12-13T02:35:06.329Z,-5.53
2022-12-13T02:38:22.947Z,-5.63
2022-12-13T02:41:27.624Z,-5.58
2022-12-13T02:44:30.794Z,-5.68
2022-12-13T02:47:12.569Z,-5.69
2022-12-13T02:49:46.960Z,-5.86
2022-12-13T02:52:22.022Z,-5.77
2022-12-13T02:54:49.794Z,-5.83
2022-12-13T02:57:40.571Z,-5.85
2022-12-13T03:00:16.378Z,-5.85
2022-12-13T03:03:13.225Z,-5.87
2022-12-13T03:06:24.458Z,-5.88
2022-12-13T03:09:07.828Z,-5.87
2022-12-13T03:12:06.619Z,-5.85
2022-12-13T03:14:36.745Z,-5.89
2022-12-13T03:17:07.272Z,-5.89
2022-12-13T03:19:34.312Z,-5.94
2022-12-13T03:22:06.519Z,-5.94
2022-12-13T03:24:33.726Z,-6.02
2022-12-13T03:27:00.694Z,-6.04
2022-12-13T03:29:27.937Z,-6.01
2022-12-13T03:31:55.121Z,-6.04
2022-12-13T03:34:23.914Z,-6.02
2022-12-13T03:36:53.699Z,-5.99
2022-12-13T03:39:21.987Z,-5.97
2022-12-13T03:41:49.617Z,-6.02
2022-12-13T03:44:16.621Z,-6.06
2022-12-13T03:46:46.089Z,-6.08
2022-12-13T03:49:17.266Z,-6.15
2022-12-13T03:51:45.315Z,-6.14
2022-12-13T03:54:12.345Z,-6.17
2022-12-13T03:56:39.226Z,-6.15
2022-12-13T03:59:06.184Z,-6.22
2022-12-13T04:01:33.232Z,-6.28
2022-12-13T04:04:00.317Z,-6.28
2022-12-13T04:06:32.622Z,-6.25
2022-12-13T04:09:00.509Z,-6.23
2022-12-13T04:11:46.234Z,-6.31
2022-12-13T04:14:22.589Z,-6.22
2022-12-13T04:16:51.902Z,-6.23
2022-12-13T04:19:23.345Z,-6.25
2022-12-13T04:21:54.105Z,-6.26
2022-12-13T04:24:31.346Z,-6.28
2022-12-13T04:27:00.745Z,-6.33
2022-12-13T04:29:34.703Z,-6.38
2022-12-13T04:32:05.542Z,-6.34
2022-12-13T04:34:52.671Z,-6.37
2022-12-13T04:37:28.352Z,-6.38
2022-12-13T04:40:00.569Z,-6.43
2022-12-13T04:42:28.362Z,-6.46
2022-12-13T04:44:55.279Z,-6.49
2022-12-13T04:47:22.322Z,-6.47
2022-12-13T04:49:49.314Z,-6.48
2022-12-13T04:52:22.016Z,-6.45
2022-12-13T04:54:55.991Z,-6.46
2022-12-13T04:57:24.159Z,-6.44
2022-12-13T04:59:52.121Z,-6.49
2022-12-13T05:02:23.805Z,-6.48
2022-12-13T05:04:53.928Z,-6.47
2022-12-13T05:07:23.410Z,-6.41
2022-12-13T05:09:50.346Z,-6.41
2022-12-13T05:12:23.248Z,-6.51
2022-12-13T05:14:52.134Z,-6.45
2022-12-13T05:17:19.656Z,-6.46
2022-12-13T05:19:46.649Z,-6.46
2022-12-13T05:22:19.831Z,-6.46
2022-12-13T05:24:47.704Z,-6.44
2022-12-13T05:27:24.039Z,-6.42
2022-12-13T05:30:03.345Z,-6.45
2022-12-13T05:32:43.348Z,-6.49
2022-12-13T05:35:14.342Z,-6.50
2022-12-13T05:37:53.989Z,-6.50
2022-12-13T05:40:28.633Z,-6.50
2022-12-13T05:43:01.648Z,-6.48
2022-12-13T05:45:31.149Z,-6.56
2022-12-13T05:47:58.539Z,-6.51
2022-12-13T05:50:26.065Z,-6.51
2022-12-13T05:52:53.188Z,-6.51
2022-12-13T05:55:20.318Z,-6.54
2022-12-13T05:57:50.468Z,-6.57
2022-12-13T06:00:30.118Z,-6.56
2022-12-13T06:03:00.975Z,-6.56
2022-12-13T06:05:30.507Z,-6.59
2022-12-13T06:07:58.290Z,-6.58
2022-12-13T06:10:34.930Z,-6.53
2022-12-13T06:13:21.615Z,-6.56
2022-12-13T06:16:01.661Z,-6.55
2022-12-13T06:18:35.085Z,-6.52
2022-12-13T06:21:06.587Z,-6.52
2022-12-13T06:23:35.684Z,-6.53
2022-12-13T06:26:05.429Z,-6.51
2022-12-13T06:28:33.190Z,-6.57
2022-12-13T06:31:05.186Z,-6.55
2022-12-13T06:33:36.730Z,-6.55
2022-12-13T06:36:06.337Z,-6.58
2022-12-13T06:38:33.519Z,-6.59
2022-12-13T06:41:16.877Z,-6.59
2022-12-13T06:43:48.486Z,-6.59
2022-12-13T06:46:16.423Z,-6.59
2022-12-13T06:48:43.534Z,-6.63
2022-12-13T06:51:10.941Z,-6.66
2022-12-13T06:53:39.903Z,-6.69
2022-12-13T06:56:13.684Z,-6.72
2022-12-13T06:58:42.211Z,-6.73
2022-12-13T07:01:23.823Z,-6.76
2022-12-13T07:03:56.055Z,-6.75
2022-12-13T07:06:28.374Z,-6.74
2022-12-13T07:08:58.174Z,-6.73
2022-12-13T07:11:29.975Z,-6.71
2022-12-13T07:13:57.016Z,-6.83
2022-12-13T07:16:30.726Z,-6.83
2022-12-13T07:19:01.235Z,-6.76
2022-12-13T07:21:30.123Z,-6.74
2022-12-13T07:23:57.512Z,-6.76
2022-12-13T07:26:25.061Z,-6.76
2022-12-13T07:28:55.418Z,-6.79
2022-12-13T07:31:24.507Z,-6.79
2022-12-13T07:33:51.666Z,-6.87
2022-12-13T07:36:22.578Z,-6.87
2022-12-13T07:38:55.511Z,-6.89
2022-12-13T07:41:25.264Z,-6.85
2022-12-13T07:43:56.141Z,-6.77
2022-12-13T07:46:33.490Z,-6.81
2022-12-13T07:49:03.394Z,-6.75
2022-12-13T07:51:30.532Z,-6.86
2022-12-13T07:53:57.828Z,-6.83
2022-12-13T07:56:24.752Z,-6.80
2022-12-13T07:58:51.691Z,-6.86
2022-12-13T08:01:19.027Z,-6.82
2022-12-13T08:03:48.674Z,-6.86
2022-12-13T08:06:15.731Z,-6.82
2022-12-13T08:08:42.937Z,-6.77
2022-12-13T08:11:13.344Z,-6.73
2022-12-13T08:13:41.004Z,-6.90
2022-12-13T08:16:26.188Z,-6.87
2022-12-13T08:19:01.824Z,-6.72
2022-12-13T08:21:58.548Z,-6.61
2022-12-13T08:24:30.877Z,-6.60
2022-12-13T08:27:03.197Z,-6.47
2022-12-13T08:29:36.190Z,-6.43
2022-12-13T08:32:09.299Z,-6.43
2022-12-13T08:34:37.048Z,-6.39
2022-12-13T08:37:05.200Z,-6.26
2022-12-13T08:39:37.506Z,-6.17
2022-12-13T08:46:01.284Z,-6.04
2022-12-13T08:48:29.472Z,-5.92
2022-12-13T08:51:03.424Z,-5.90
2022-12-13T08:53:33.939Z,-5.78
2022-12-13T08:56:12.185Z,-5.62
2022-12-13T08:58:39.794Z,-5.50
2022-12-13T09:01:10.695Z,-5.45
2022-12-13T09:03:38.222Z,-5.29
2022-12-13T09:06:15.252Z,-5.13
2022-12-13T09:08:44.807Z,-5.03
2022-12-13T09:11:34.813Z,-4.92
2022-12-13T09:14:03.705Z,-4.82
2022-12-13T09:16:35.738Z,-4.76
2022-12-13T09:19:25.535Z,-4.47
2022-12-13T09:21:53.341Z,-4.29
2022-12-13T09:24:36.280Z,-4.17
2022-12-13T09:27:09.158Z,-3.92
2022-12-13T09:29:38.190Z,-3.68
2022-12-13T09:32:05.787Z,-3.48
2022-12-13T09:34:35.965Z,-3.23
2022-12-13T09:37:03.017Z,-3.01
2022-12-13T09:39:30.211Z,-2.68
2022-12-13T09:42:01.480Z,-2.39
2022-12-13T09:44:43.900Z,-2.02
2022-12-13T09:47:38.772Z,-1.71
2022-12-13T09:50:38.696Z,-1.29
2022-12-13T09:53:11.781Z,-1.07
2022-12-13T09:55:45.570Z,-0.92
2022-12-13T09:58:18.780Z,-0.72
2022-12-13T10:00:48.688Z,-0.50
2022-12-13T10:03:18.140Z,-0.31
2022-12-13T10:06:00.368Z,-0.12
2022-12-13T10:08:41.314Z,0.08
2022-12-13T10:11:14.091Z,0.22
2022-12-13T10:13:56.003Z,0.45
2022-12-13T10:16:35.814Z,0.63
2022-12-13T10:19:39.012Z,0.63
2022-12-13T10:22:13.925Z,0.77
2022-12-13T10:25:04.894Z,0.86
2022-12-13T10:27:48.084Z,0.92
2022-12-13T10:30:17.570Z,1.15
2022-12-13T10:32:56.552Z,1.32
2022-12-13T10:35:37.913Z,1.46
2022-12-13T10:38:07.757Z,1.59
2022-12-13T10:40:41.561Z,1.73
2022-12-13T10:43:27.527Z,1.91
2022-12-13T10:45:57.920Z,2.08
2022-12-13T10:48:49.537Z,2.29
2022-12-13T10:51:22.094Z,2.41
2022-12-13T10:53:56.406Z,2.61
2022-12-13T10:56:36.770Z,2.79
2022-12-13T10:59:23.495Z,2.84
2022-12-13T11:01:50.443Z,2.92
2022-12-13T11:04:36.212Z,2.97
2022-12-13T11:07:32.732Z,2.99
2022-12-13T11:10:28.006Z,3.08
2022-12-13T11:13:02.735Z,3.17
2022-12-13T11:15:32.405Z,3.25
2022-12-13T11:18:06.805Z,3.41
2022-12-13T11:20:37.102Z,3.53
2022-12-13T11:23:12.583Z,3.89
2022-12-13T11:25:42.684Z,4.01
2022-12-13T11:28:55.499Z,4.14
2022-12-13T11:32:04.129Z,4.00
2022-12-13T11:35:13.280Z,4.12
2022-12-13T11:38:09.776Z,4.27
2022-12-13T11:40:49.723Z,4.41
2022-12-13T11:43:43.427Z,4.59
2022-12-13T11:46:53.594Z,4.76
2022-12-13T11:49:39.546Z,4.87
2022-12-13T11:52:29.069Z,4.86
2022-12-13T11:55:05.658Z,4.77
2022-12-13T11:57:53.634Z,4.73
2022-12-13T12:01:04.646Z,4.80
2022-12-13T12:03:41.087Z,4.83
2022-12-13T12:06:38.792Z,4.86
2022-12-13T12:09:15.874Z,4.71
2022-12-13T12:11:53.422Z,4.45
2022-12-13T12:14:38.120Z,4.39
2022-12-13T12:17:07.044Z,4.49
2022-12-13T12:19:38.469Z,4.68
2022-12-13T12:22:14.247Z,4.71
2022-12-13T12:25:45.453Z,4.77
2022-12-13T12:29:01.371Z,4.81
2022-12-13T12:32:05.955Z,4.79
2022-12-13T12:35:13.440Z,4.71
2022-12-13T12:38:05.068Z,4.76
2022-12-13T12:41:16.707Z,4.63
2022-12-13T12:43:47.306Z,4.64
2022-12-13T12:47:08.528Z,4.76
2022-12-13T12:49:48.740Z,4.65
2022-12-13T12:52:27.611Z,4.69
2022-12-13T12:55:12.221Z,4.77
2022-12-13T12:57:57.139Z,4.84
2022-12-13T13:00:44.246Z,4.82
2022-12-13T13:03:23.193Z,4.84
2022-12-13T13:06:02.674Z,4.77
2022-12-13T13:08:59.384Z,4.69
2022-12-13T13:11:30.701Z,4.72
2022-12-13T13:14:01.833Z,4.71
2022-12-13T13:16:40.416Z,4.45
2022-12-13T13:19:16.511Z,4.33
2022-12-13T13:22:01.591Z,4.11
2022-12-13T13:24:31.868Z,3.99
2022-12-13T13:27:10.790Z,3.98
2022-12-13T13:29:43.891Z,4.01
2022-12-13T13:32:11.269Z,3.96
2022-12-13T13:34:50.731Z,3.77
2022-12-13T13:37:24.085Z,3.76
2022-12-13T13:40:31.406Z,3.69
2022-12-13T13:43:10.306Z,3.57
2022-12-13T13:45:49.407Z,3.47
2022-12-13T13:49:04.542Z,3.37
2022-12-13T13:52:23.834Z,3.33
2022-12-13T13:55:08.694Z,3.18
2022-12-13T13:58:10.418Z,3.01
2022-12-13T14:01:08.881Z,2.85
2022-12-13T14:04:27.068Z,2.76
2022-12-13T14:07:51.231Z,2.66
2022-12-13T14:11:09.093Z,2.56
2022-12-13T14:14:32.793Z,2.46
2022-12-13T14:17:46.813Z,2.26
2022-12-13T14:20:46.503Z,2.41
2022-12-13T14:23:31.413Z,2.46
2022-12-13T14:26:15.858Z,2.48
2022-12-13T14:28:57.221Z,2.54
2022-12-13T14:31:48.303Z,2.57
2022-12-13T14:34:25.403Z,2.61
2022-12-13T14:37:01.866Z,2.57
2022-12-13T14:39:32.163Z,2.50
2022-12-13T14:42:02.090Z,2.38
2022-12-13T14:44:35.128Z,2.22
2022-12-13T14:47:05.932Z,2.08
2022-12-13T14:49:41.861Z,1.99
2022-12-13T14:52:33.968Z,1.83
2022-12-13T14:55:06.247Z,1.68
2022-12-13T14:57:36.176Z,1.54
2022-12-13T15:00:42.031Z,1.36
2022-12-13T15:03:28.430Z,1.24
2022-12-13T15:05:59.919Z,1.24
2022-12-13T15:08:28.494Z,1.22
2022-12-13T15:10:59.587Z,1.23
2022-12-13T15:13:43.646Z,1.08
2022-12-13T15:16:28.429Z,1.06
2022-12-13T15:19:29.415Z,0.96
2022-12-13T15:22:07.507Z,0.85
2022-12-13T15:24:41.914Z,0.82
2022-12-13T15:27:24.600Z,0.76
2022-12-13T15:29:54.235Z,0.68
2022-12-13T15:32:23.282Z,0.65
2022-12-13T15:34:51.644Z,0.59
2022-12-13T15:37:29.271Z,0.54
2022-12-13T15:40:05.422Z,0.44
2022-12-13T15:42:35.834Z,0.37
2022-12-13T15:45:15.996Z,0.33
2022-12-13T15:47:48.587Z,0.31
2022-12-13T15:50:35.006Z,0.27
2022-12-13T15:53:16.064Z,0.20
2022-12-13T15:55:43.054Z,-0.02
2022-12-13T15:58:27.459Z,-0.09
2022-12-13T16:00:54.580Z,-0.23
2022-12-13T16:03:24.865Z,-0.38
2022-12-13T16:05:56.733Z,-0.40
2022-12-13T16:08:31.381Z,-0.50
2022-12-13T16:10:59.544Z,-0.64
2022-12-13T16:13:34.910Z,-0.64
2022-12-13T16:16:10.043Z,-0.69
2022-12-13T16:18:59.382Z,-0.76
2022-12-13T16:21:28.321Z,-0.82
2022-12-13T16:23:55.217Z,-0.96
2022-12-13T16:26:34.022Z,-0.98
2022-12-13T16:29:01.192Z,-1.11
2022-12-13T16:31:35.384Z,-1.23
2022-12-13T16:34:04.130Z,-1.24
2022-12-13T16:36:31.510Z,-1.36
2022-12-13T16:38:58.457Z,-1.46
2022-12-13T16:41:25.794Z,-1.56
2022-12-13T16:44:00.533Z,-1.58
2022-12-13T16:47:12.819Z,-1.67
2022-12-13T16:49:27.212Z,-1.68
2022-12-13T16:51:55.169Z,-1.69
2022-12-13T16:54:24.538Z,-1.83
2022-12-13T16:56:53.914Z,-1.81
2022-12-13T16:59:24.723Z,-1.78
2022-12-13T17:01:52.207Z,-1.84
2022-12-13T17:04:27.243Z,-1.72
2022-12-13T17:06:55.449Z,-1.75
2022-12-13T17:09:25.201Z,-1.74
2022-12-13T17:11:52.246Z,-1.83
2022-12-13T17:14:19.418Z,-1.92
2022-12-13T17:16:47.514Z,-2.00
2022-12-13T17:19:16.028Z,-2.10
2022-12-13T17:21:43.176Z,-2.04
2022-12-13T17:24:10.167Z,-2.15
2022-12-13T17:26:37.395Z,-2.10
2022-12-13T17:29:05.169Z,-2.09
2022-12-13T17:31:35.709Z,-2.11
2022-12-13T17:34:04.291Z,-2.12
2022-12-13T17:36:31.800Z,-2.15
2022-12-13T17:38:59.222Z,-2.18
2022-12-13T17:41:27.677Z,-2.28
2022-12-13T17:44:00.736Z,-2.33
2022-12-13T17:46:28.001Z,-2.39
2022-12-13T17:48:54.999Z,-2.37
2022-12-13T17:51:22.090Z,-2.41
2022-12-13T17:53:50.685Z,-2.34
2022-12-13T17:56:19.726Z,-2.38
2022-12-13T17:58:47.078Z,-2.43
2022-12-13T18:01:17.517Z,-2.45
2022-12-13T18:03:45.085Z,-2.53
2022-12-13T18:06:12.565Z,-2.56
2022-12-13T18:08:42.349Z,-2.58
2022-12-13T18:13:56.602Z,-2.69
2022-12-13T18:16:30.307Z,-2.66
2022-12-13T18:19:01.880Z,-2.75
2022-12-13T18:21:28.785Z,-2.75
2022-12-13T18:23:56.253Z,-2.87
2022-12-13T18:26:24.823Z,-3.09
2022-12-13T18:28:52.423Z,-2.93
2022-12-13T18:31:23.234Z,-3.04
2022-12-13T18:33:52.778Z,-2.90
2022-12-13T18:36:22.496Z,-3.02
2022-12-13T18:38:49.773Z,-2.92
2022-12-13T18:41:23.502Z,-3.10
2022-12-13T18:44:00.283Z,-3.07
2022-12-13T18:46:30.309Z,-3.07
2022-12-13T18:48:58.146Z,-3.17
2022-12-13T18:51:26.370Z,-3.17
2022-12-13T18:53:54.577Z,-3.22
2022-12-13T18:56:21.934Z,-3.48
2022-12-13T18:58:50.830Z,-3.33
2022-12-13T19:01:19.694Z,-3.50
2022-12-13T19:03:48.439Z,-3.58
2022-12-13T19:06:25.783Z,-3.48
2022-12-13T19:08:56.313Z,-3.46
2022-12-13T19:11:26.247Z,-3.50
2022-12-13T19:13:53.974Z,-3.50
2022-12-13T19:16:24.114Z,-3.51
2022-12-13T19:18:54.072Z,-3.57
2022-12-13T19:21:22.702Z,-3.52
2022-12-13T19:23:56.811Z,-3.64
2022-12-13T19:26:26.997Z,-3.75
2022-12-13T19:28:57.067Z,-3.65
2022-12-13T19:31:30.391Z,-3.79
2022-12-13T19:34:00.310Z,-3.67
2022-12-13T19:36:27.675Z,-3.81
2022-12-13T19:38:55.973Z,-3.70
2022-12-13T19:41:23.236Z,-3.65
2022-12-13T19:43:52.951Z,-3.84
2022-12-13T19:46:21.577Z,-3.82
2022-12-13T19:48:48.829Z,-3.80
2022-12-13T19:51:16.780Z,-3.64
2022-12-13T19:53:43.893Z,-3.66
2022-12-13T19:56:17.826Z,-3.60
2022-12-13T19:58:47.484Z,-3.62
2022-12-13T20:01:18.930Z,-3.79
2022-12-13T20:03:50.709Z,-3.93
2022-12-13T20:06:22.446Z,-3.68
2022-12-13T20:08:50.683Z,-3.90
2022-12-13T20:11:22.081Z,-3.75
2022-12-13T20:16:45.485Z,-3.80
2022-12-13T20:19:12.623Z,-3.75
2022-12-13T20:21:39.711Z,-3.69
2022-12-13T20:24:07.039Z,-3.79
2022-12-13T20:26:34.278Z,-3.74
2022-12-13T20:29:01.496Z,-3.76
2022-12-13T20:31:32.164Z,-3.62
2022-12-13T20:34:02.911Z,-3.79
2022-12-13T20:36:31.624Z,-3.74
2022-12-13T20:39:01.865Z,-3.84
2022-12-13T20:41:33.305Z,-3.63
2022-12-13T20:44:13.206Z,-3.83
2022-12-13T20:46:41.098Z,-3.82
2022-12-13T20:49:09.966Z,-3.69
2022-12-13T20:51:39.826Z,-3.63
2022-12-13T20:54:14.668Z,-3.73
2022-12-13T20:56:42.389Z,-3.90
2022-12-13T20:59:13.045Z,-3.89
2022-12-13T21:01:42.122Z,-3.88
2022-12-13T21:04:10.413Z,-3.93
2022-12-13T21:06:40.776Z,-3.90
2022-12-13T21:09:09.727Z,-3.98
2022-12-13T21:11:39.645Z,-3.74
2022-12-13T21:14:28.906Z,-3.92
2022-12-13T21:16:59.742Z,-3.88
2022-12-13T21:19:37.493Z,-3.82
2022-12-13T21:22:06.652Z,-4.02
2022-12-13T21:24:33.768Z,-3.94
2022-12-13T21:27:01.056Z,-3.86
2022-12-13T21:29:28.181Z,-4.05
2022-12-13T21:31:56.126Z,-4.12
2022-12-13T21:34:23.814Z,-3.91
2022-12-13T21:36:52.883Z,-4.00
2022-12-13T21:39:24.132Z,-4.15
2022-12-13T21:41:52.207Z,-4.08
2022-12-13T21:44:19.590Z,-4.21
2022-12-13T21:47:11.388Z,-4.20
2022-12-13T21:49:35.366Z,-4.18
2022-12-13T21:52:02.565Z,-4.23
2022-12-13T21:54:29.609Z,-4.33
2022-12-13T21:57:15.648Z,-4.35
2022-12-13T21:59:43.198Z,-4.27
2022-12-13T22:02:17.797Z,-4.17
2022-12-13T22:04:57.653Z,-4.16
2022-12-13T22:07:30.098Z,-4.23
2022-12-13T22:09:59.012Z,-4.21
2022-12-13T22:12:46.533Z,-4.22
2022-12-13T22:15:15.526Z,-4.38
2022-12-13T22:17:43.483Z,-4.26
2022-12-13T22:20:15.519Z,-4.43
2022-12-13T22:22:44.225Z,-4.22
2022-12-13T22:25:12.064Z,-4.30
2022-12-13T22:27:39.324Z,-4.37
2022-12-13T22:30:07.474Z,-4.38
2022-12-13T22:32:34.716Z,-4.44
2022-12-13T22:35:02.204Z,-4.36
2022-12-13T22:37:29.997Z,-4.56
2022-12-13T22:39:57.046Z,-4.57
2022-12-13T22:42:24.211Z,-4.63
2022-12-13T22:44:51.397Z,-4.52
2022-12-13T22:50:44.980Z,-4.47
2022-12-13T22:53:12.234Z,-4.46
2022-12-13T22:55:39.774Z,-4.47
2022-12-13T22:58:06.703Z,-4.46
2022-12-13T23:01:06.911Z,-4.43
2022-12-13T23:03:34.433Z,-4.44
2022-12-13T23:06:30.002Z,-4.43
2022-12-13T23:09:02.750Z,-4.44
2022-12-13T23:11:48.993Z,-4.48
2022-12-13T23:14:25.416Z,-4.46
2022-12-13T23:16:52.431Z,-4.48
2022-12-13T23:22:08.506Z,-4.46
2022-12-13T23:24:35.573Z,-4.48
2022-12-13T23:27:02.691Z,-4.43
2022-12-13T23:29:29.602Z,-4.43
2022-12-13T23:31:56.892Z,-4.42
2022-12-13T23:34:24.332Z,-4.41
2022-12-13T23:36:51.263Z,-4.39
2022-12-13T23:39:18.151Z,-4.38
2022-12-13T23:41:45.129Z,-4.37
2022-12-13T23:44:12.118Z,-4.35
2022-12-13T23:46:39.312Z,-4.31
2022-12-13T23:49:07.073Z,-4.25
2022-12-13T23:51:35.273Z,-4.24
2022-12-13T23:54:02.151Z,-4.24
2022-12-13T23:56:29.697Z,-4.27
2022-12-13T23:58:56.841Z,-4.25
